createdAt,value
2019-02-28T00:00:16.060Z,6.8
2019-02-28T00:05:21.706Z,10.4
2019-02-28T00:10:28.071Z,5.9
2019-02-28T00:15:35.104Z,5.5
2019-02-28T00:20:38.910Z,4.9
2019-02-28T00:25:44.392Z,5.5
2019-02-28T00:30:50.289Z,5.1
2019-02-28T00:35:55.830Z,5.8
2019-02-28T00:41:01.940Z,4.7
2019-02-28T00:46:07.193Z,8.7
2019-02-28T00:51:16.134Z,5.3
2019-02-28T00:56:20.294Z,6.9
2019-02-28T01:01:23.036Z,4.9
2019-02-28T01:06:28.221Z,5.1
2019-02-28T01:11:33.885Z,4.1
2019-02-28T01:16:41.385Z,8
2019-02-28T01:21:46.938Z,4.8
2019-02-28T01:26:52.677Z,4.8
2019-02-28T01:31:58.407Z,4
2019-02-28T01:37:03.874Z,4.8
2019-02-28T01:42:09.364Z,3.8
2019-02-28T01:47:14.984Z,3.8
2019-02-28T01:52:24.525Z,4.9
2019-02-28T01:57:29.870Z,4.2
2019-02-28T02:02:37.996Z,4.2
2019-02-28T02:07:44.457Z,3.9
2019-02-28T02:12:49.798Z,4
2019-02-28T02:17:55.127Z,3.7
2019-02-28T02:23:01.162Z,3.6
2019-02-28T02:28:07.124Z,4.8
2019-02-28T02:33:14.376Z,3.9
2019-02-28T02:38:20.844Z,3.3
2019-02-28T02:43:26.155Z,3.9
2019-02-28T02:48:31.519Z,3.2
2019-02-28T02:53:41.340Z,3.2
2019-02-28T02:58:38.507Z,3.5
2019-02-28T03:03:44.536Z,5.7
2019-02-28T03:08:50.568Z,4.7
2019-02-28T03:13:55.708Z,3.8
2019-02-28T03:19:01.534Z,4.1
2019-02-28T03:24:06.703Z,3.9
2019-02-28T03:29:10.609Z,3.8
2019-02-28T03:34:16.225Z,3.2
2019-02-28T03:39:24.482Z,3.1
2019-02-28T03:44:31.081Z,3.1
2019-02-28T03:49:36.486Z,3.2
2019-02-28T03:54:41.993Z,3.3
2019-02-28T03:59:55.251Z,3.9
2019-02-28T04:04:52.393Z,3.2
2019-02-28T04:09:57.358Z,3.9
2019-02-28T04:15:05.699Z,3.6
2019-02-28T04:20:06.093Z,3.1
2019-02-28T04:25:11.583Z,3.5
2019-02-28T04:30:16.722Z,5
2019-02-28T04:35:25.201Z,2.4
2019-02-28T04:40:31.105Z,4.8
2019-02-28T04:45:36.474Z,4.7
2019-02-28T04:50:41.876Z,4.6
2019-02-28T04:55:47.425Z,5.1
2019-02-28T05:00:52.796Z,2
2019-02-28T05:05:57.158Z,2.2
2019-02-28T05:11:02.393Z,2.2
2019-02-28T05:16:09.273Z,4
2019-02-28T05:21:19.462Z,3.1
2019-02-28T05:26:26.202Z,3.4
2019-02-28T05:31:31.745Z,3.4
2019-02-28T05:36:37.795Z,2.4
2019-02-28T05:41:48.912Z,5.1
2019-02-28T05:46:57.465Z,8.1
2019-02-28T05:52:03.509Z,11.7
2019-02-28T05:55:11.630Z,8
2019-02-28T06:00:17.340Z,13.1
2019-02-28T06:05:23.319Z,16.6
2019-02-28T06:10:27.916Z,8.2
2019-02-28T06:15:34.164Z,9.3
2019-02-28T06:20:42.421Z,9.2
2019-02-28T06:25:48.178Z,7.7
2019-02-28T06:30:54.287Z,12
2019-02-28T06:36:00.010Z,9.8
2019-02-28T06:41:08.667Z,8.7
2019-02-28T06:46:15.480Z,9.5
2019-02-28T06:51:20.415Z,4.8
2019-02-28T06:56:25.245Z,14.2
2019-02-28T07:01:30.758Z,15.3
2019-02-28T07:06:35.916Z,12.6
2019-02-28T07:11:43.203Z,15.2
2019-02-28T07:16:49.184Z,16
2019-02-28T07:21:54.954Z,14.9
2019-02-28T07:27:00.374Z,13.6
2019-02-28T07:32:08.247Z,11.8
2019-02-28T07:37:18.455Z,14.2
2019-02-28T07:42:14.258Z,13.1
2019-02-28T07:47:19.884Z,12.1
2019-02-28T07:52:25.537Z,9.8
2019-02-28T07:57:27.967Z,9.3
2019-02-28T08:02:35.610Z,11.1
2019-02-28T08:07:35.275Z,7.6
2019-02-28T08:12:40.563Z,10.8
2019-02-28T08:17:46.461Z,7.7
2019-02-28T08:22:51.837Z,5.9
2019-02-28T08:27:52.108Z,10.8
2019-02-28T08:32:53.889Z,5.9
2019-02-28T08:37:59.521Z,5.4
2019-02-28T08:43:04.761Z,7.4
2019-02-28T08:48:10.126Z,7
2019-02-28T08:53:19.619Z,5.2
2019-02-28T08:58:23.775Z,6
2019-02-28T09:03:28.941Z,3.9
2019-02-28T09:08:34.953Z,2.8
2019-02-28T09:13:42.850Z,4.9
2019-02-28T09:18:49.278Z,2.9
2019-02-28T09:23:54.993Z,2.2
2019-02-28T10:11:36.386Z,3.4
2019-02-28T10:16:33.489Z,3.1
2019-02-28T10:21:39.705Z,7.9
2019-02-28T10:26:48.149Z,9.4
2019-02-28T10:31:47.140Z,3.5
2019-02-28T10:36:52.897Z,2.4
2019-02-28T10:42:01.428Z,1.5
2019-02-28T10:47:00.585Z,2.7
2019-02-28T10:52:06.241Z,3.1
2019-02-28T10:57:11.830Z,2.6
2019-02-28T11:02:19.722Z,1.9
2019-02-28T11:07:25.513Z,1.6
2019-02-28T11:12:31.321Z,1.1
2019-02-28T11:17:37.140Z,1.2
2019-02-28T11:22:42.914Z,0.9
2019-02-28T11:27:48.304Z,1.5
2019-02-28T11:32:57.227Z,0.9
2019-02-28T11:37:57.645Z,1.5
2019-02-28T11:43:02.632Z,2.5
2019-02-28T11:48:08.987Z,2
2019-02-28T11:53:12.656Z,2.3
2019-02-28T11:58:19.707Z,1.4
2019-02-28T12:03:25.138Z,0.9
2019-02-28T12:08:30.926Z,0.9
2019-02-28T12:13:36.360Z,1.5
2019-02-28T12:18:42.209Z,12.4
2019-02-28T12:23:47.615Z,9.5
2019-02-28T12:28:51.774Z,8
2019-02-28T12:33:59.369Z,5.5
2019-02-28T12:39:05.238Z,3.1
2019-02-28T12:44:12.333Z,2.7
2019-02-28T12:49:22.190Z,4
2019-02-28T12:54:22.062Z,1.7
2019-02-28T12:59:25.938Z,1.8
2019-02-28T13:04:32.480Z,1.3
2019-02-28T13:09:41.845Z,1.3
2019-02-28T13:14:47.783Z,9.3
2019-02-28T13:19:53.140Z,19.7
2019-02-28T13:25:02.039Z,28.5
2019-02-28T13:30:10.306Z,35.3
2019-02-28T13:35:17.548Z,34.5
2019-02-28T13:40:23.173Z,28.3
2019-02-28T13:45:30.356Z,18.6
2019-02-28T13:50:34.499Z,28.9
2019-02-28T13:55:40.639Z,28.7
2019-02-28T14:00:47.200Z,29.6
2019-02-28T14:05:52.251Z,32.7
2019-02-28T14:10:57.674Z,36.9
2019-02-28T14:16:02.295Z,35.4
2019-02-28T14:21:07.670Z,23.4
2019-02-28T14:26:14.019Z,24.7
2019-02-28T14:31:20.744Z,25.5
2019-02-28T14:36:28.606Z,17.4
2019-02-28T14:41:34.544Z,20.8
2019-02-28T14:46:39.781Z,18.7
2019-02-28T14:51:45.217Z,18.1
2019-02-28T14:56:51.438Z,18.3
2019-02-28T15:01:57.592Z,14.4
2019-02-28T15:07:04.321Z,20
2019-02-28T15:12:10.385Z,14.7
2019-02-28T15:17:15.906Z,13.5
2019-02-28T15:22:21.535Z,14.2
2019-02-28T15:27:27.228Z,16.6
2019-02-28T15:32:33.058Z,12.1
2019-02-28T15:37:38.556Z,23.5
2019-02-28T15:42:44.345Z,25.1
2019-02-28T15:47:49.751Z,21.5
2019-02-28T15:52:54.676Z,24
2019-02-28T15:58:02.615Z,29.8
2019-02-28T16:03:01.164Z,24.3
2019-02-28T16:08:10.261Z,30.2
2019-02-28T16:13:08.497Z,41
2019-02-28T16:18:14.858Z,42.2
2019-02-28T16:23:23.432Z,35.7
2019-02-28T16:28:21.016Z,36.2
2019-02-28T16:33:27.089Z,32.3
2019-02-28T16:38:32.785Z,30.2
2019-02-28T16:43:38.829Z,28.1
2019-02-28T16:48:44.319Z,29.3
2019-02-28T16:53:49.651Z,26.1
2019-02-28T16:58:53.500Z,27.7
2019-02-28T17:03:54.501Z,23.6
2019-02-28T17:09:00.079Z,21.7
2019-02-28T17:14:00.467Z,27.5
2019-02-28T17:19:05.999Z,22.9
2019-02-28T17:24:14.234Z,20.7
2019-02-28T17:29:21.522Z,18.7
2019-02-28T17:34:24.272Z,18.2
2019-02-28T17:39:30.841Z,20.7
2019-02-28T17:44:38.579Z,19.3
2019-02-28T17:49:44.345Z,16.9
2019-02-28T17:54:49.981Z,17.5
2019-02-28T17:59:50.742Z,16.3
2019-02-28T18:04:57.160Z,15.4
2019-02-28T18:10:03.791Z,13.9
2019-02-28T18:15:09.653Z,14.2
2019-02-28T18:20:15.721Z,16.2
2019-02-28T18:25:21.791Z,12.4
2019-02-28T18:30:28.781Z,14.6
2019-02-28T18:35:34.748Z,14.5
2019-02-28T18:40:40.038Z,13.1
2019-02-28T18:45:45.678Z,11.3
2019-02-28T18:50:52.684Z,12
2019-02-28T18:55:59.041Z,13.3
2019-02-28T19:01:04.340Z,13
2019-02-28T19:06:10.396Z,10.6
2019-02-28T19:11:16.106Z,11.5
2019-02-28T19:16:25.292Z,17.7
2019-02-28T19:21:31.038Z,21.5
2019-02-28T19:26:36.904Z,10.4
2019-02-28T19:31:42.723Z,21.6
2019-02-28T19:36:48.059Z,12.1
2019-02-28T19:41:53.811Z,13.4
2019-02-28T19:46:59.943Z,9.3
2019-02-28T19:52:04.007Z,6.6
2019-02-28T19:57:10.326Z,6.6
2019-02-28T20:02:16.104Z,8.6
2019-02-28T20:07:22.606Z,6.9
2019-02-28T20:12:28.173Z,6
2019-02-28T20:17:29.337Z,6.4
2019-02-28T20:22:34.406Z,8.7
2019-02-28T20:27:40.264Z,2.8
2019-02-28T20:32:45.850Z,6.2
2019-02-28T20:37:51.424Z,4
2019-02-28T20:42:58.172Z,3.7
2019-02-28T20:48:04.230Z,3.2
2019-02-28T20:53:09.814Z,3.1
2019-02-28T20:58:16.054Z,7.8
2019-02-28T21:03:22.147Z,4.3
2019-02-28T21:08:27.541Z,4.3
2019-02-28T21:13:33.229Z,3.5
2019-02-28T21:18:39.047Z,3.7
2019-02-28T21:23:44.369Z,3.8
2019-02-28T21:28:49.911Z,4.9
2019-02-28T21:33:55.513Z,5
2019-02-28T21:39:04.469Z,2.9
2019-02-28T21:44:09.723Z,3.7
2019-02-28T21:49:15.723Z,2
2019-02-28T21:54:21.042Z,4.3
2019-02-28T21:59:26.340Z,4.5
2019-02-28T22:04:32.090Z,7.7
2019-02-28T22:09:38.465Z,2.6
2019-02-28T22:14:43.754Z,5.6
2019-02-28T22:19:49.801Z,5.3
2019-02-28T22:24:55.403Z,3.9
2019-02-28T22:30:00.977Z,3.7
2019-02-28T22:35:06.988Z,8.8
2019-02-28T22:40:13.093Z,3.6
2019-02-28T22:45:18.240Z,3.6
2019-02-28T22:50:22.430Z,3.3
2019-02-28T22:55:27.849Z,3.4
2019-02-28T23:00:33.929Z,4.5
2019-02-28T23:05:39.951Z,3.4
2019-02-28T23:10:45.595Z,3.4
2019-02-28T23:15:51.231Z,4.3
2019-02-28T23:20:57.229Z,4.6
2019-02-28T23:26:06.076Z,5
2019-02-28T23:31:12.752Z,5.1
2019-02-28T23:36:18.548Z,6.3
2019-02-28T23:41:24.493Z,4.5
2019-02-28T23:46:30.398Z,5.2
2019-02-28T23:51:35.746Z,3.2
2019-02-28T23:56:41.575Z,5.2
